Time;durP1;ratioP1;P1;durP2;ratioP2;P2;SDS_P1;SDS_P2;PMS_P1;PMS_P2;Temp;Humidity;BMP_temperature;BMP_pressure;BME280_temperature;BME280_humidity;BME280_pressure;Samples;Min_cycle;Max_cycle;Signal;HPM_P1;HPM_P2
2022/07/30 00:01:10;;;;;;;4.95;0.85;;;15.60;99.90;;;;;;5074490;28;20016;-73
2022/07/30 00:03:35;;;;;;;1.45;0.60;;;15.60;99.90;;;;;;5074344;28;20029;-73
2022/07/30 00:06:01;;;;;;;2.13;0.60;;;15.50;99.90;;;;;;5073094;28;20017;-73
2022/07/30 00:08:27;;;;;;;1.60;0.93;;;15.50;99.90;;;;;;5074156;28;20442;-73
2022/07/30 00:10:52;;;;;;;3.28;0.70;;;15.50;99.90;;;;;;5073972;28;20039;-73
2022/07/30 00:13:18;;;;;;;3.38;1.05;;;15.50;99.90;;;;;;5074433;28;20382;-73
2022/07/30 00:15:43;;;;;;;6.78;0.68;;;15.50;99.90;;;;;;5078551;28;20429;-73
2022/07/30 00:18:09;;;;;;;9.10;1.10;;;15.50;99.90;;;;;;5078844;28;20048;-74
2022/07/30 00:20:35;;;;;;;4.43;0.82;;;15.50;99.90;;;;;;5078440;28;20108;-73
2022/07/30 00:23:03;;;;;;;5.75;0.98;;;15.50;99.90;;;;;;5077914;28;20089;-73
2022/07/30 00:25:29;;;;;;;6.85;0.93;;;15.40;99.90;;;;;;5076778;28;20028;-73
2022/07/30 00:27:55;;;;;;;8.13;0.82;;;15.40;99.90;;;;;;5077811;28;20031;-73
2022/07/30 00:30:20;;;;;;;4.68;1.02;;;15.40;99.90;;;;;;5077910;28;20469;-73
2022/07/30 00:32:46;;;;;;;4.20;1.27;;;15.40;99.90;;;;;;5077910;28;20030;-73
2022/07/30 00:35:12;;;;;;;4.38;0.77;;;15.40;99.90;;;;;;5077689;28;20074;-73
2022/07/30 00:37:38;;;;;;;2.92;1.05;;;15.30;99.90;;;;;;5077628;28;20049;-74
2022/07/30 00:40:05;;;;;;;6.82;0.80;;;15.30;99.90;;;;;;5077490;28;20029;-73
2022/07/30 00:42:39;;;;;;;2.08;0.88;;;15.30;99.90;;;;;;5076640;28;20558;-73
2022/07/30 00:45:06;;;;;;;2.92;1.20;;;15.30;99.90;;;;;;5077928;28;20032;-73
2022/07/30 00:47:32;;;;;;;6.95;2.05;;;15.20;99.90;;;;;;5077370;28;20098;-73
2022/07/30 00:49:57;;;;;;;5.90;1.23;;;15.20;99.90;;;;;;5077556;28;20025;-73
2022/07/30 00:52:23;;;;;;;3.08;1.08;;;15.20;99.90;;;;;;5077837;28;20092;-73
2022/07/30 00:54:48;;;;;;;3.17;0.95;;;15.20;99.90;;;;;;5077852;28;20025;-73
2022/07/30 00:57:14;;;;;;;3.20;0.82;;;15.10;99.90;;;;;;5078308;28;20024;-73
2022/07/30 00:59:39;;;;;;;4.80;1.63;;;15.10;99.90;;;;;;5077272;28;20493;-73
2022/07/30 01:02:05;;;;;;;4.93;1.30;;;15.10;99.90;;;;;;5077881;28;20100;-73
2022/07/30 01:04:31;;;;;;;4.22;1.17;;;15.30;99.90;;;;;;5077444;28;20017;-73
2022/07/30 01:06:56;;;;;;;5.07;1.52;;;15.10;99.90;;;;;;5075825;28;20025;-73
2022/07/30 01:09:22;;;;;;;2.75;1.40;;;15.10;99.90;;;;;;5075967;28;20029;-73
2022/07/30 01:11:47;;;;;;;3.28;1.40;;;15.00;99.90;;;;;;5077414;28;20069;-73
2022/07/30 01:14:13;;;;;;;6.25;1.30;;;14.90;99.90;;;;;;5078284;28;20384;-73
2022/07/30 01:16:41;;;;;;;5.53;1.95;;;14.90;99.90;;;;;;5075369;28;20497;-73
2022/07/30 01:22:25;;;;;;;6.70;2.03;;;14.90;99.90;;;;;;5077702;28;20622;-73
2022/07/30 01:25:02;;;;;;;4.45;1.70;;;14.90;99.90;;;;;;5076618;28;20033;-73
2022/07/30 01:27:58;;;;;;;5.80;2.30;;;14.80;99.90;;;;;;5076354;28;20036;-73
2022/07/30 01:30:28;;;;;;;5.00;1.90;;;14.80;99.90;;;;;;5075444;28;20405;-73
2022/07/30 01:32:56;;;;;;;5.65;1.70;;;14.80;99.90;;;;;;5076417;28;20543;-73
2022/07/30 01:35:25;;;;;;;7.18;2.35;;;14.70;99.90;;;;;;5076395;28;20481;-73
2022/07/30 01:37:53;;;;;;;3.45;1.77;;;14.70;99.90;;;;;;5076374;28;20074;-73
2022/07/30 01:40:19;;;;;;;2.30;1.43;;;14.70;99.90;;;;;;5076499;28;20024;-74
2022/07/30 01:42:50;;;;;;;7.07;2.55;;;14.70;99.90;;;;;;5076464;28;20562;-73
2022/07/30 01:45:17;;;;;;;6.15;1.67;;;14.60;99.90;;;;;;5076845;28;20023;-73
2022/07/30 01:47:44;;;;;;;3.78;1.45;;;14.60;99.90;;;;;;5076324;28;20033;-74
2022/07/30 01:50:15;;;;;;;3.22;1.80;;;14.60;99.90;;;;;;5076147;28;20103;-73
2022/07/30 01:52:46;;;;;;;7.25;2.15;;;14.60;99.90;;;;;;5076013;28;20110;-73
2022/07/30 01:55:15;;;;;;;5.45;2.08;;;14.60;99.90;;;;;;5076522;28;20032;-73
2022/07/30 01:57:42;;;;;;;6.28;2.40;;;14.50;99.90;;;;;;5076081;28;20499;-73
2022/07/30 02:00:09;;;;;;;7.75;2.78;;;14.50;99.90;;;;;;5076197;28;20016;-73
2022/07/30 02:02:37;;;;;;;8.10;2.30;;;14.50;99.90;;;;;;5076398;28;20048;-73
2022/07/30 02:05:04;;;;;;;6.40;2.60;;;14.50;99.90;;;;;;5076087;28;20020;-73
2022/07/30 02:07:39;;;;;;;3.92;2.08;;;14.40;99.90;;;;;;5076425;28;20029;-73
2022/07/30 02:10:12;;;;;;;5.88;2.50;;;14.40;99.90;;;;;;5076429;28;20412;-73
2022/07/30 02:12:44;;;;;;;4.63;2.30;;;14.40;99.90;;;;;;5076645;28;20377;-74
2022/07/30 02:15:36;;;;;;;7.22;2.47;;;14.40;99.90;;;;;;5074869;28;20025;-73
2022/07/30 02:18:27;;;;;;;5.95;2.40;;;14.30;99.90;;;;;;5075019;28;20024;-73
2022/07/30 02:20:59;;;;;;;8.93;2.67;;;14.30;99.90;;;;;;5047235;28;20028;-73
2022/07/30 02:23:27;;;;;;;6.82;2.85;;;14.30;99.90;;;;;;5075903;28;20017;-73
2022/07/30 02:25:54;;;;;;;5.72;2.95;;;14.30;99.90;;;;;;5075856;28;20028;-73
2022/07/30 02:28:21;;;;;;;6.30;2.92;;;14.30;99.90;;;;;;5075788;28;20028;-73
2022/07/30 02:30:50;;;;;;;12.32;3.63;;;14.30;99.90;;;;;;5075573;28;20021;-73
2022/07/30 02:33:20;;;;;;;8.68;3.42;;;14.30;99.90;;;;;;5074487;28;20413;-73
2022/07/30 02:35:47;;;;;;;5.82;3.53;;;14.20;99.90;;;;;;5074287;28;20062;-73
2022/07/30 02:38:16;;;;;;;6.50;3.90;;;14.20;99.90;;;;;;5074431;28;20020;-73
2022/07/30 02:40:43;;;;;;;6.97;3.70;;;14.50;99.90;;;;;;5074276;28;20024;-73
2022/07/30 02:43:10;;;;;;;7.97;4.18;;;14.20;99.90;;;;;;5075451;28;20037;-73
2022/07/30 02:45:36;;;;;;;8.18;3.65;;;14.10;99.90;;;;;;5074343;28;20474;-73
2022/07/30 02:48:06;;;;;;;5.97;3.08;;;14.10;99.90;;;;;;5075368;28;20021;-73
2022/07/30 02:50:33;;;;;;;4.45;3.08;;;14.10;99.90;;;;;;5075388;28;20070;-73
2022/07/30 02:53:00;;;;;;;8.85;3.83;;;14.00;99.90;;;;;;5074073;28;20514;-73
2022/07/30 02:55:27;;;;;;;6.72;3.53;;;14.00;99.90;;;;;;5075298;28;20428;-73
2022/07/30 02:57:55;;;;;;;9.20;3.90;;;14.00;99.90;;;;;;5075237;28;20044;-73
2022/07/30 03:00:22;;;;;;;9.55;3.88;;;14.00;99.90;;;;;;5075208;28;20020;-73
2022/07/30 03:02:48;;;;;;;5.00;3.70;;;13.90;99.90;;;;;;5074254;28;20036;-74
2022/07/30 03:05:15;;;;;;;5.65;3.40;;;13.90;99.90;;;;;;5075385;28;20077;-73
2022/07/30 03:07:41;;;;;;;10.20;3.50;;;13.90;99.90;;;;;;5075516;28;20039;-73
2022/07/30 03:10:08;;;;;;;7.68;3.90;;;13.90;99.90;;;;;;5075650;28;20028;-73
2022/07/30 03:12:36;;;;;;;7.63;4.00;;;13.90;99.90;;;;;;5075063;28;20477;-73
2022/07/30 03:15:01;;;;;;;6.35;3.17;;;13.90;99.90;;;;;;5073718;28;20021;-73
2022/07/30 03:17:30;;;;;;;6.38;4.05;;;13.80;99.90;;;;;;5075049;28;20086;-73
2022/07/30 03:19:56;;;;;;;;;;;13.80;99.90;;;;;;5074018;28;20504;-73
2022/07/30 03:22:25;;;;;;;7.05;3.78;;;13.80;99.90;;;;;;5074025;28;19998;-73
2022/07/30 03:24:53;;;;;;;13.88;4.10;;;13.90;99.90;;;;;;5074709;28;20033;-73
2022/07/30 03:27:19;;;;;;;6.78;3.13;;;13.80;99.90;;;;;;5074927;28;20021;-73
2022/07/30 03:29:47;;;;;;;11.80;4.25;;;13.70;99.90;;;;;;5075244;28;20021;-73
2022/07/30 03:32:13;;;;;;;27.13;4.78;;;13.70;99.90;;;;;;5073605;28;20377;-73
2022/07/30 03:34:40;;;;;;;11.10;4.63;;;13.70;99.90;;;;;;5074888;28;20013;-73
2022/07/30 03:37:05;;;;;;;12.63;4.97;;;13.60;99.90;;;;;;5073695;28;20504;-73
2022/07/30 03:39:36;;;;;;;12.32;4.72;;;13.70;99.90;;;;;;5074542;28;20078;-73
2022/07/30 03:42:02;;;;;;;10.02;4.93;;;13.60;99.90;;;;;;5073477;28;20101;-73
2022/07/30 03:44:29;;;;;;;6.95;3.75;;;13.70;99.90;;;;;;5073569;28;20143;-73
2022/07/30 03:46:56;;;;;;;6.15;3.75;;;13.60;99.90;;;;;;5074837;28;20040;-73
2022/07/30 03:49:23;;;;;;;12.75;4.72;;;13.60;99.90;;;;;;5074440;28;20113;-73
2022/07/30 03:51:51;;;;;;;16.38;5.85;;;13.60;99.90;;;;;;5074591;28;20024;-73
2022/07/30 03:54:17;;;;;;;11.05;5.13;;;13.60;99.90;;;;;;5074578;28;20019;-73
2022/07/30 03:56:42;;;;;;;11.70;5.15;;;13.60;99.90;;;;;;5074619;28;20373;-73
2022/07/30 03:59:08;;;;;;;10.73;4.32;;;13.50;99.90;;;;;;5074533;28;20031;-73
2022/07/30 04:01:34;;;;;;;13.38;5.03;;;13.50;99.90;;;;;;5074081;28;20112;-73
2022/07/30 04:04:10;;;;;;;8.05;4.45;;;13.50;99.90;;;;;;5074915;28;20071;-73
2022/07/30 04:06:39;;;;;;;9.07;3.90;;;13.50;99.90;;;;;;5072957;28;20385;-73
2022/07/30 04:09:09;;;;;;;9.65;4.47;;;13.40;99.90;;;;;;5074250;28;20100;-73
2022/07/30 04:11:35;;;;;;;10.27;4.97;;;13.40;99.90;;;;;;5074432;28;20032;-73
2022/07/30 04:14:01;;;;;;;9.80;5.40;;;13.40;99.90;;;;;;5074071;28;20021;-73
2022/07/30 04:16:46;;;;;;;9.80;4.68;;;13.40;99.90;;;;;;5074734;28;20393;-73
2022/07/30 04:19:18;;;;;;;11.98;4.43;;;13.40;99.90;;;;;;5073137;28;20025;-73
2022/07/30 04:21:46;;;;;;;12.07;4.57;;;13.40;99.90;;;;;;5074374;28;20032;-73
2022/07/30 04:24:14;;;;;;;11.13;5.07;;;13.40;99.90;;;;;;5074055;28;20094;-73
2022/07/30 04:26:40;;;;;;;11.00;4.87;;;13.40;99.90;;;;;;5073874;28;20367;-73
2022/07/30 04:29:08;;;;;;;8.43;5.03;;;13.40;99.90;;;;;;5072713;28;20020;-73
2022/07/30 04:31:35;;;;;;;9.40;5.55;;;13.50;99.90;;;;;;5073632;28;20020;-73
2022/07/30 04:34:02;;;;;;;11.02;4.78;;;13.50;99.90;;;;;;5072623;28;20500;-73
2022/07/30 04:36:29;;;;;;;11.05;4.82;;;13.50;99.90;;;;;;5074175;28;20020;-73
2022/07/30 04:38:55;;;;;;;6.63;4.25;;;13.60;99.90;;;;;;5073937;28;20075;-73
2022/07/30 04:41:21;;;;;;;10.27;3.92;;;13.70;99.90;;;;;;5073829;28;20025;-73
2022/07/30 04:43:46;;;;;;;9.65;3.95;;;13.70;99.90;;;;;;5073847;28;20029;-73
2022/07/30 04:46:13;;;;;;;6.15;3.78;;;13.80;99.90;;;;;;5074225;28;20474;-74
2022/07/30 04:48:39;;;;;;;7.43;3.78;;;13.90;99.90;;;;;;5072916;28;20024;-73
2022/07/30 04:51:10;;;;;;;7.45;3.65;;;13.90;99.90;;;;;;5072426;28;20481;-73
2022/07/30 04:53:37;;;;;;;9.70;4.85;;;14.00;99.90;;;;;;5073723;28;20382;-73
2022/07/30 04:56:04;;;;;;;11.15;4.30;;;14.10;99.90;;;;;;5073706;28;20048;-73
2022/07/30 04:58:32;;;;;;;8.00;4.35;;;14.20;99.90;;;;;;5074273;28;20017;-73
2022/07/30 05:00:59;;;;;;;8.18;3.97;;;14.30;99.90;;;;;;5073895;28;20393;-73
2022/07/30 05:03:25;;;;;;;9.98;3.88;;;14.30;99.90;;;;;;5077556;28;20060;-73
2022/07/30 05:05:51;;;;;;;12.02;4.45;;;14.50;99.90;;;;;;5076360;28;20025;-73
2022/07/30 05:08:17;;;;;;;7.93;4.47;;;14.50;99.90;;;;;;5077620;28;20017;-73
2022/07/30 05:10:44;;;;;;;5.38;3.58;;;14.60;99.90;;;;;;5077430;28;20039;-73
2022/07/30 05:13:11;;;;;;;8.00;3.85;;;14.70;99.90;;;;;;5075995;28;20025;-73
2022/07/30 05:15:37;;;;;;;3.80;2.60;;;14.90;99.90;;;;;;5077386;28;20028;-73
2022/07/30 05:18:03;;;;;;;7.70;3.45;;;15.00;99.90;;;;;;5077441;28;20017;-73
2022/07/30 05:20:28;;;;;;;6.55;3.13;;;15.00;99.90;;;;;;5077238;28;20051;-73
2022/07/30 05:22:54;;;;;;;8.60;3.50;;;15.20;99.90;;;;;;5077380;28;20025;-73
2022/07/30 05:25:20;;;;;;;5.80;3.50;;;15.30;99.90;;;;;;5075717;28;20031;-74
2022/07/30 05:27:45;;;;;;;4.55;2.65;;;15.50;99.90;;;;;;5076062;28;20024;-74
2022/07/30 05:30:11;;;;;;;5.20;2.42;;;15.90;99.90;;;;;;5077561;28;20091;-74
2022/07/30 05:32:37;;;;;;;10.18;2.53;;;15.80;99.90;;;;;;5077118;28;20032;-74
2022/07/30 05:35:02;;;;;;;6.50;2.83;;;15.90;99.90;;;;;;5077856;28;20036;-74
2022/07/30 05:37:28;;;;;;;7.78;2.35;;;16.00;99.90;;;;;;5076886;28;20056;-74
2022/07/30 05:39:54;;;;;;;6.70;1.92;;;17.10;99.90;;;;;;5076978;28;20035;-74
2022/07/30 05:42:20;;;;;;;7.13;1.95;;;16.20;99.90;;;;;;5077318;28;20441;-74
2022/07/30 05:44:45;;;;;;;7.05;2.83;;;17.10;99.90;;;;;;5077141;28;20025;-73
2022/07/30 05:47:11;;;;;;;7.55;2.30;;;16.20;99.90;;;;;;5077859;28;20420;-73
2022/07/30 05:49:36;;;;;;;3.78;1.88;;;16.40;99.90;;;;;;5076653;28;20024;-73
2022/07/30 05:52:02;;;;;;;4.40;1.63;;;17.10;99.90;;;;;;5075373;28;20020;-74
2022/07/30 05:54:28;;;;;;;5.38;1.30;;;16.50;99.90;;;;;;5076837;28;20137;-73
2022/07/30 05:56:53;;;;;;;5.28;1.50;;;17.00;99.90;;;;;;5077196;28;20013;-73
2022/07/30 05:59:19;;;;;;;5.28;0.85;;;16.70;99.90;;;;;;5075607;28;20075;-73
2022/07/30 06:01:45;;;;;;;5.35;1.30;;;16.80;99.90;;;;;;5065141;28;20028;-73
2022/07/30 06:04:10;;;;;;;4.68;1.02;;;16.90;99.90;;;;;;5073709;28;20060;-75
2022/07/30 06:06:36;;;;;;;2.85;0.70;;;17.00;99.90;;;;;;5055474;28;20052;-74
2022/07/30 06:09:01;;;;;;;2.50;0.50;;;17.20;99.90;;;;;;5054853;28;20025;-74
2022/07/30 06:11:27;;;;;;;6.28;0.65;;;17.30;99.90;;;;;;5055614;28;20028;-74
2022/07/30 06:13:52;;;;;;;6.82;0.65;;;17.40;99.90;;;;;;5055663;28;20398;-73
2022/07/30 06:16:18;;;;;;;2.80;1.02;;;17.50;99.90;;;;;;5055791;28;20021;-74
2022/07/30 06:18:43;;;;;;;6.05;1.40;;;17.60;99.90;;;;;;5054201;28;20025;-74
2022/07/30 06:21:09;;;;;;;1.60;0.52;;;17.70;99.90;;;;;;5055823;28;20481;-74
2022/07/30 06:23:35;;;;;;;4.50;0.32;;;17.80;99.90;;;;;;5055268;28;20036;-75
2022/07/30 06:26:00;;;;;;;3.45;0.30;;;18.00;99.90;;;;;;5055304;28;20448;-74
2022/07/30 06:28:26;;;;;;;0.65;0.43;;;18.00;99.90;;;;;;5053578;28;20393;-75
2022/07/30 06:30:51;;;;;;;5.47;0.40;;;18.00;99.90;;;;;;5055289;28;20021;-75
2022/07/30 06:33:17;;;;;;;3.90;0.35;;;18.10;99.90;;;;;;5054997;28;20017;-76
2022/07/30 06:35:42;;;;;;;2.70;0.47;;;18.20;99.90;;;;;;5054378;28;20029;-74
2022/07/30 06:38:08;;;;;;;7.47;0.75;;;18.20;99.90;;;;;;5054171;28;20096;-74
2022/07/30 06:40:33;;;;;;;1.10;0.40;;;18.40;99.90;;;;;;5054053;28;20559;-74
2022/07/30 06:42:59;;;;;;;3.80;0.45;;;18.40;99.90;;;;;;5054986;28;20017;-74
2022/07/30 06:45:24;;;;;;;1.55;0.30;;;18.50;99.90;;;;;;5055435;28;20024;-74
2022/07/30 06:47:50;;;;;;;2.42;0.17;;;18.60;99.90;;;;;;5054661;28;20028;-73
2022/07/30 06:50:19;;;;;;;3.42;0.20;;;18.70;99.90;;;;;;5054951;28;20482;-73
2022/07/30 06:52:44;;;;;;;1.20;0.10;;;18.80;99.90;;;;;;5054801;28;20021;-73
2022/07/30 06:55:10;;;;;;;1.85;0.20;;;19.00;99.90;;;;;;5054158;28;20082;-73
2022/07/30 06:57:35;;;;;;;3.05;0.30;;;19.00;99.90;;;;;;5054428;28;20021;-73
2022/07/30 07:00:01;;;;;;;4.65;0.45;;;19.30;99.90;;;;;;5054574;28;20029;-73
2022/07/30 07:02:26;;;;;;;3.67;0.25;;;19.20;99.90;;;;;;5054485;28;20155;-73
2022/07/30 07:04:52;;;;;;;2.65;0.13;;;19.20;99.90;;;;;;5054523;28;20390;-73
2022/07/30 07:07:17;;;;;;;1.10;0.03;;;19.30;99.90;;;;;;5054348;28;20025;-74
2022/07/30 07:09:43;;;;;;;0.98;0.00;;;19.40;99.90;;;;;;5062332;22;20065;-75
2022/07/30 07:12:09;;;;;;;2.13;0.10;;;19.70;99.90;;;;;;5052728;28;20470;-75
2022/07/30 07:14:34;;;;;;;2.30;0.10;;;21.00;99.90;;;;;;5054004;28;20017;-75
2022/07/30 07:17:00;;;;;;;0.65;0.17;;;19.90;99.90;;;;;;5053961;28;20020;-75
2022/07/30 07:19:25;;;;;;;1.25;0.10;;;19.70;99.90;;;;;;5053871;28;20029;-75
2022/07/30 07:21:51;;;;;;;2.47;0.32;;;19.40;99.90;;;;;;5054287;28;20025;-75
2022/07/30 07:24:16;;;;;;;3.00;0.28;;;19.30;99.90;;;;;;5053270;28;20394;-76
2022/07/30 07:26:42;;;;;;;1.20;0.00;;;19.10;99.90;;;;;;5052493;28;20112;-76
2022/07/30 07:29:08;;;;;;;2.63;0.40;;;19.20;99.90;;;;;;5053655;28;20033;-76
2022/07/30 07:31:33;;;;;;;4.05;0.30;;;19.50;99.90;;;;;;5052449;28;20025;-76
2022/07/30 07:33:59;;;;;;;4.28;0.20;;;19.70;99.90;;;;;;5053704;28;20108;-75
2022/07/30 07:36:25;;;;;;;2.40;0.17;;;19.60;99.90;;;;;;5052306;28;20017;-75
2022/07/30 07:38:50;;;;;;;2.30;0.55;;;19.60;99.90;;;;;;5053521;28;20523;-75
2022/07/30 07:41:16;;;;;;;0.65;0.15;;;19.70;99.90;;;;;;5053380;28;20027;-76
2022/07/30 07:43:41;;;;;;;2.35;0.35;;;19.80;99.90;;;;;;5053779;28;20027;-76
2022/07/30 07:46:08;;;;;;;3.78;0.10;;;19.90;99.90;;;;;;5053721;28;20075;-76
2022/07/30 07:48:33;;;;;;;3.15;0.20;;;19.90;99.90;;;;;;5052063;28;20025;-77
2022/07/30 07:50:59;;;;;;;2.25;0.17;;;20.00;99.90;;;;;;5052743;28;20017;-76
2022/07/30 07:53:25;;;;;;;2.42;0.40;;;20.20;99.90;;;;;;5052999;28;20143;-76
2022/07/30 07:55:51;;;;;;;1.48;0.20;;;20.40;99.90;;;;;;5053356;28;20090;-76
2022/07/30 07:58:16;;;;;;;1.38;0.20;;;20.80;99.90;;;;;;5053546;28;20024;-76
2022/07/30 08:00:42;;;;;;;1.17;0.05;;;20.60;99.90;;;;;;5053624;28;20025;-78
2022/07/30 08:03:08;;;;;;;2.97;0.20;;;20.80;99.90;;;;;;5053441;28;20074;-76
2022/07/30 08:05:33;;;;;;;1.05;0.00;;;20.80;99.90;;;;;;5053477;28;20382;-76
2022/07/30 08:07:59;;;;;;;0.35;0.28;;;20.80;99.90;;;;;;5053185;28;20024;-76
2022/07/30 08:10:25;;;;;;;2.50;0.30;;;20.80;99.90;;;;;;5052938;28;20067;-76
2022/07/30 08:12:51;;;;;;;4.28;0.20;;;20.80;99.90;;;;;;5053239;28;20021;-76
2022/07/30 08:15:16;;;;;;;2.60;0.10;;;21.00;99.90;;;;;;5053218;28;20139;-76
2022/07/30 08:17:43;;;;;;;3.08;0.22;;;21.20;99.90;;;;;;5053649;28;20033;-76
2022/07/30 08:20:11;;;;;;;4.55;0.22;;;21.20;99.90;;;;;;5053024;28;20051;-76
2022/07/30 08:22:37;;;;;;;4.85;0.43;;;21.20;99.90;;;;;;5053172;28;20397;-76
2022/07/30 08:25:04;;;;;;;0.85;0.10;;;21.10;99.90;;;;;;5068603;28;20028;-76
2022/07/30 08:27:29;;;;;;;0.68;0.25;;;21.10;99.90;;;;;;5053019;28;20029;-77
2022/07/30 08:29:55;;;;;;;4.05;0.10;;;21.10;99.90;;;;;;5053171;28;20095;-77
2022/07/30 08:32:21;;;;;;;2.03;0.10;;;21.30;99.90;;;;;;5052898;28;20025;-77
2022/07/30 08:34:46;;;;;;;0.75;0.13;;;21.50;99.90;;;;;;5053183;28;20025;-77
2022/07/30 08:37:12;;;;;;;1.13;0.30;;;21.70;99.90;;;;;;5056528;28;20025;-77
2022/07/30 08:39:37;;;;;;;1.80;0.08;;;21.90;99.90;;;;;;5055726;28;20397;-77
2022/07/30 08:42:03;;;;;;;1.27;0.00;;;21.70;99.90;;;;;;5057094;28;20013;-77
2022/07/30 08:44:31;;;;;;;0.43;0.10;;;21.40;99.90;;;;;;5057408;28;20036;-77
2022/07/30 08:47:00;;;;;;;6.32;0.30;;;21.60;99.90;;;;;;5056848;28;20056;-77
2022/07/30 08:49:26;;;;;;;1.25;0.10;;;21.70;99.90;;;;;;5056779;28;20079;-77
2022/07/30 08:51:52;;;;;;;2.83;0.25;;;22.00;99.90;;;;;;5055461;28;20032;-77
2022/07/30 08:54:18;;;;;;;3.85;0.13;;;22.10;99.90;;;;;;5056735;28;20028;-77
2022/07/30 08:56:45;;;;;;;2.78;0.00;;;22.10;99.90;;;;;;5072110;28;20062;-76
2022/07/30 08:59:10;;;;;;;2.95;0.17;;;22.20;99.90;;;;;;5056900;28;20094;-77
2022/07/30 09:01:36;;;;;;;1.23;0.45;;;22.20;99.90;;;;;;5056729;28;20020;-77
2022/07/30 09:04:02;;;;;;;1.08;0.10;;;22.10;99.90;;;;;;5056509;28;20068;-77
2022/07/30 09:06:28;;;;;;;2.55;0.10;;;22.10;99.90;;;;;;5056443;28;20493;-77
2022/07/30 09:08:54;;;;;;;1.05;0.10;;;22.30;99.90;;;;;;5056232;28;20064;-76
2022/07/30 09:11:19;;;;;;;1.27;0.10;;;22.40;99.90;;;;;;5056626;28;20059;-76
2022/07/30 09:13:45;;;;;;;0.98;0.28;;;22.40;99.90;;;;;;5056521;28;20021;-77
2022/07/30 09:16:19;;;;;;;1.20;0.22;;;22.30;99.90;;;;;;5056713;28;20466;-77
2022/07/30 09:18:45;;;;;;;3.80;0.43;;;22.30;99.90;;;;;;5056916;28;20517;-77
2022/07/30 09:21:23;;;;;;;0.10;0.00;;;22.50;99.90;;;;;;5056223;28;20032;-77
2022/07/30 09:24:02;;;;;;;3.17;0.30;;;22.60;99.80;;;;;;5056873;28;20033;-77
2022/07/30 09:26:31;;;;;;;0.10;0.03;;;22.80;99.90;;;;;;5056789;28;20080;-77
2022/07/30 09:29:18;;;;;;;1.90;0.25;;;22.80;97.20;;;;;;5056040;28;20041;-77
2022/07/30 09:32:00;;;;;;;0.73;0.10;;;22.90;98.70;;;;;;5071478;28;20017;-77
2022/07/30 09:34:29;;;;;;;2.65;0.10;;;22.90;99.20;;;;;;5055973;28;20504;-76
2022/07/30 09:37:00;;;;;;;1.52;0.05;;;23.00;97.50;;;;;;5071338;28;20021;-76
2022/07/30 09:39:37;;;;;;;0.00;0.00;;;23.10;98.90;;;;;;5071296;28;20529;-76
2022/07/30 09:42:16;;;;;;;3.00;0.10;;;23.20;96.60;;;;;;5055757;28;20021;-77
2022/07/30 09:44:42;;;;;;;0.10;0.00;;;23.00;96.30;;;;;;5055957;28;20033;-77
2022/07/30 09:47:07;;;;;;;1.00;0.03;;;22.90;96.70;;;;;;5070560;28;20494;-77
2022/07/30 09:49:33;;;;;;;0.13;0.00;;;23.10;98.50;;;;;;5055517;28;20043;-77
2022/07/30 09:51:59;;;;;;;1.75;0.00;;;23.10;97.00;;;;;;5055803;28;20017;-77
2022/07/30 09:54:46;;;;;;;0.70;0.22;;;23.30;97.80;;;;;;5054254;28;20031;-75
2022/07/30 09:57:12;;;;;;;1.15;0.10;;;23.60;97.90;;;;;;5055531;28;20017;-75
2022/07/30 09:59:37;;;;;;;0.47;0.03;;;23.70;96.50;;;;;;5055310;28;20027;-76
2022/07/30 10:02:03;;;;;;;1.65;0.20;;;23.80;97.80;;;;;;5055282;28;20028;-76
2022/07/30 10:04:31;;;;;;;1.80;0.00;;;24.00;94.40;;;;;;5054046;28;20021;-76
2022/07/30 10:06:58;;;;;;;2.28;0.00;;;23.80;95.50;;;;;;5070764;28;20025;-76
2022/07/30 10:09:34;;;;;;;0.75;0.00;;;23.90;94.30;;;;;;5055140;28;20090;-77
2022/07/30 10:12:02;;;;;;;1.08;0.00;;;24.20;95.40;;;;;;5055064;28;20024;-76
2022/07/30 10:14:40;;;;;;;1.60;0.00;;;24.30;92.60;;;;;;5070610;28;20032;-76
2022/07/30 10:17:06;;;;;;;0.30;0.00;;;24.50;91.70;;;;;;5070492;28;20020;-76
2022/07/30 10:19:32;;;;;;;1.08;0.00;;;24.20;91.90;;;;;;5053790;28;20032;-76
2022/07/30 10:21:59;;;;;;;5.40;0.15;;;24.10;92.40;;;;;;5054842;28;20025;-76
2022/07/30 10:24:26;;;;;;;1.65;0.00;;;24.30;92.30;;;;;;5054961;28;20021;-76
2022/07/30 10:26:53;;;;;;;2.47;0.00;;;24.50;91.90;;;;;;5055033;28;20025;-76
2022/07/30 10:29:19;;;;;;;1.30;0.35;;;24.70;91.80;;;;;;5054914;28;20048;-76
2022/07/30 10:31:50;;;;;;;0.13;0.00;;;24.90;92.10;;;;;;5053595;28;20103;-76
2022/07/30 10:34:19;;;;;;;0.75;0.00;;;25.00;91.00;;;;;;5055110;28;20025;-76
2022/07/30 10:36:49;;;;;;;0.08;0.00;;;25.20;90.40;;;;;;5054757;28;20021;-76
2022/07/30 10:39:20;;;;;;;0.20;0.00;;;25.20;91.00;;;;;;5054675;28;20045;-76
2022/07/30 10:42:29;;;;;;;0.00;0.00;;;25.20;91.80;;;;;;5054716;28;20033;-76
2022/07/30 10:45:13;;;;;;;0.17;0.10;;;25.40;90.20;;;;;;5016696;28;20443;-76
2022/07/30 10:47:40;;;;;;;0.43;0.00;;;25.70;87.90;;;;;;5053161;28;20029;-76
2022/07/30 10:50:07;;;;;;;2.05;0.00;;;25.70;85.30;;;;;;5054444;28;20075;-76
2022/07/30 10:52:50;;;;;;;1.17;0.00;;;25.50;86.00;;;;;;5069827;28;20032;-76
2022/07/30 10:55:24;;;;;;;0.10;0.00;;;25.50;84.40;;;;;;5054649;28;20025;-76
2022/07/30 10:57:58;;;;;;;1.23;0.00;;;25.80;85.10;;;;;;5054250;28;20381;-76
2022/07/30 11:00:24;;;;;;;0.77;0.00;;;25.70;78.90;;;;;;5052573;28;20033;-76
2022/07/30 11:03:12;;;;;;;1.33;0.20;;;25.70;80.00;;;;;;5054227;28;20514;-76
2022/07/30 11:05:37;;;;;;;0.63;0.00;;;25.70;78.20;;;;;;5054701;28;20024;-77
2022/07/30 11:08:29;;;;;;;1.85;0.00;;;26.00;80.40;;;;;;5053440;28;20031;-77
2022/07/30 11:10:55;;;;;;;0.70;0.00;;;26.10;79.90;;;;;;5052781;28;20060;-76
2022/07/30 11:13:49;;;;;;;0.40;0.00;;;26.40;80.40;;;;;;5054265;28;20025;-76
2022/07/30 11:16:16;;;;;;;0.43;0.00;;;26.20;74.90;;;;;;5052683;28;20032;-76
2022/07/30 11:19:02;;;;;;;0.82;0.10;;;26.30;73.80;;;;;;5054049;28;20086;-76
2022/07/30 11:21:29;;;;;;;0.30;0.00;;;26.40;75.00;;;;;;5069249;28;20025;-76
2022/07/30 11:23:54;;;;;;;0.47;0.00;;;26.80;77.90;;;;;;5053766;28;20032;-76
2022/07/30 11:26:38;;;;;;;0.32;0.00;;;27.40;77.60;;;;;;5054166;28;20028;-76
2022/07/30 11:29:34;;;;;;;0.90;0.00;;;27.90;72.90;;;;;;5053675;28;20025;-76
2022/07/30 11:32:35;;;;;;;0.30;0.00;;;28.20;70.30;;;;;;5046177;28;20040;-77
2022/07/30 11:35:25;;;;;;;0.32;0.00;;;27.90;69.50;;;;;;4993138;28;20030;-79
2022/07/30 11:38:19;;;;;;;0.60;0.00;;;27.90;70.70;;;;;;5052060;28;20037;-78
2022/07/30 11:40:48;;;;;;;0.57;0.00;;;27.80;68.80;;;;;;5052582;28;20556;-76
2022/07/30 11:43:24;;;;;;;0.25;0.00;;;27.70;68.70;;;;;;5069841;28;20116;-76
2022/07/30 11:46:03;;;;;;;1.60;0.32;;;27.60;69.10;;;;;;5053584;28;20068;-76
2022/07/30 11:48:30;;;;;;;0.00;0.00;;;27.60;71.30;;;;;;5054010;28;20107;-76
2022/07/30 11:50:56;;;;;;;1.65;0.10;;;27.40;67.90;;;;;;5053398;28;20025;-76
2022/07/30 11:53:22;;;;;;;0.10;0.00;;;27.50;71.30;;;;;;5052112;28;20020;-76
2022/07/30 11:55:53;;;;;;;4.18;0.30;;;27.70;70.40;;;;;;5052005;28;20028;-76
2022/07/30 11:58:38;;;;;;;3.13;0.00;;;28.00;67.80;;;;;;5068708;28;20017;-76
2022/07/30 12:01:05;;;;;;;0.30;0.00;;;28.30;68.70;;;;;;5053324;28;20017;-76
2022/07/30 12:03:31;;;;;;;2.30;0.00;;;28.30;65.30;;;;;;5051955;28;20486;-76
2022/07/30 12:06:05;;;;;;;3.40;0.00;;;28.20;66.30;;;;;;5053296;28;20071;-76
2022/07/30 12:08:45;;;;;;;1.90;0.20;;;28.20;68.20;;;;;;5052942;28;20095;-76
2022/07/30 12:11:11;;;;;;;0.50;0.00;;;28.10;68.80;;;;;;5052951;28;20078;-76
2022/07/30 12:13:39;;;;;;;0.40;0.00;;;28.20;68.10;;;;;;5051769;28;20025;-76
2022/07/30 12:16:09;;;;;;;0.52;0.00;;;28.30;67.10;;;;;;5068449;28;20115;-76
2022/07/30 12:18:34;;;;;;;1.38;0.15;;;28.20;65.70;;;;;;5053247;28;20021;-76
2022/07/30 12:21:03;;;;;;;2.13;0.00;;;28.30;64.10;;;;;;5052981;28;20530;-76
2022/07/30 12:23:30;;;;;;;2.28;0.00;;;28.20;66.90;;;;;;5053041;28;20029;-76
2022/07/30 12:25:56;;;;;;;1.05;0.00;;;28.30;66.80;;;;;;5053051;28;20243;-76
2022/07/30 12:28:33;;;;;;;1.58;0.00;;;28.50;65.70;;;;;;5068472;28;20030;-76
2022/07/30 12:31:03;;;;;;;0.93;0.00;;;28.50;63.90;;;;;;5068587;28;20021;-76
2022/07/30 12:33:30;;;;;;;3.28;0.00;;;28.40;65.80;;;;;;5053028;28;20025;-76
2022/07/30 12:35:57;;;;;;;0.00;0.00;;;28.20;62.10;;;;;;5035211;28;20032;-76
2022/07/30 12:38:25;;;;;;;0.17;0.00;;;28.20;63.50;;;;;;5068428;28;20107;-76
2022/07/30 12:41:08;;;;;;;3.15;0.00;;;28.10;64.00;;;;;;5052955;28;20013;-76
2022/07/30 12:43:46;;;;;;;1.48;0.20;;;27.90;65.00;;;;;;5052960;28;20025;-76
2022/07/30 12:46:20;;;;;;;0.47;0.20;;;27.80;62.30;;;;;;5052953;28;20021;-76
2022/07/30 12:48:59;;;;;;;1.92;0.00;;;27.80;65.60;;;;;;5068750;28;20033;-76
2022/07/30 12:51:31;;;;;;;2.38;0.00;;;28.00;67.00;;;;;;5052798;28;20021;-76
2022/07/30 12:53:57;;;;;;;0.40;0.00;;;28.20;65.40;;;;;;5051393;28;20500;-76
2022/07/30 12:56:25;;;;;;;0.75;0.00;;;28.30;65.50;;;;;;5051386;28;20025;-76